sensor_id;sensor_type;location;lat;lon;timestamp;P1;durP1;ratioP1;P2;durP2;ratioP2
81298;SDS011;70766;53.170;18.160;2023-11-21T00:00:05;19.90;;;8.40;;
81298;SDS011;70766;53.170;18.160;2023-11-21T00:03:00;14.70;;;6.80;;
81298;SDS011;70766;53.170;18.160;2023-11-21T00:05:28;12.70;;;5.50;;
81298;SDS011;70766;53.170;18.160;2023-11-21T00:07:56;18.90;;;7.70;;
81298;SDS011;70766;53.170;18.160;2023-11-21T00:10:25;14.50;;;5.10;;
81298;SDS011;70766;53.170;18.160;2023-11-21T00:12:53;12.80;;;5.90;;
81298;SDS011;70766;53.170;18.160;2023-11-21T00:15:23;11.40;;;6.80;;
81298;SDS011;70766;53.170;18.160;2023-11-21T00:17:51;14.60;;;6.50;;
81298;SDS011;70766;53.170;18.160;2023-11-21T00:20:20;15.50;;;7.00;;
81298;SDS011;70766;53.170;18.160;2023-11-21T00:22:48;12.00;;;7.10;;
81298;SDS011;70766;53.170;18.160;2023-11-21T00:25:17;19.10;;;8.00;;
81298;SDS011;70766;53.170;18.160;2023-11-21T00:27:45;14.60;;;6.40;;
81298;SDS011;70766;53.170;18.160;2023-11-21T00:30:13;14.40;;;7.50;;
81298;SDS011;70766;53.170;18.160;2023-11-21T00:32:42;18.60;;;8.10;;
81298;SDS011;70766;53.170;18.160;2023-11-21T00:35:11;11.00;;;5.20;;
81298;SDS011;70766;53.170;18.160;2023-11-21T00:37:39;13.00;;;5.70;;
81298;SDS011;70766;53.170;18.160;2023-11-21T00:40:07;16.90;;;7.50;;
81298;SDS011;70766;53.170;18.160;2023-11-21T00:42:37;8.30;;;3.90;;
81298;SDS011;70766;53.170;18.160;2023-11-21T00:45:06;10.80;;;4.60;;
81298;SDS011;70766;53.170;18.160;2023-11-21T00:47:34;9.00;;;3.90;;
81298;SDS011;70766;53.170;18.160;2023-11-21T00:50:03;10.50;;;4.80;;
81298;SDS011;70766;53.170;18.160;2023-11-21T00:52:34;13.30;;;5.90;;
81298;SDS011;70766;53.170;18.160;2023-11-21T00:55:05;15.00;;;6.90;;
81298;SDS011;70766;53.170;18.160;2023-11-21T00:57:36;16.40;;;7.20;;
81298;SDS011;70766;53.170;18.160;2023-11-21T01:00:07;14.70;;;5.90;;
81298;SDS011;70766;53.170;18.160;2023-11-21T01:02:41;11.70;;;4.50;;
81298;SDS011;70766;53.170;18.160;2023-11-21T01:05:11;21.80;;;8.90;;
81298;SDS011;70766;53.170;18.160;2023-11-21T01:07:40;17.80;;;7.00;;
81298;SDS011;70766;53.170;18.160;2023-11-21T01:10:08;8.20;;;3.80;;
81298;SDS011;70766;53.170;18.160;2023-11-21T01:12:37;18.40;;;7.60;;
81298;SDS011;70766;53.170;18.160;2023-11-21T01:15:06;19.90;;;8.20;;
81298;SDS011;70766;53.170;18.160;2023-11-21T01:17:35;23.80;;;10.30;;
81298;SDS011;70766;53.170;18.160;2023-11-21T01:20:04;20.00;;;7.50;;
81298;SDS011;70766;53.170;18.160;2023-11-21T01:22:40;14.20;;;6.60;;
81298;SDS011;70766;53.170;18.160;2023-11-21T01:25:09;14.10;;;6.60;;
81298;SDS011;70766;53.170;18.160;2023-11-21T01:27:38;17.20;;;7.90;;
81298;SDS011;70766;53.170;18.160;2023-11-21T01:30:07;17.60;;;7.80;;
81298;SDS011;70766;53.170;18.160;2023-11-21T01:32:38;13.40;;;5.70;;
81298;SDS011;70766;53.170;18.160;2023-11-21T01:35:09;18.80;;;9.70;;
81298;SDS011;70766;53.170;18.160;2023-11-21T01:37:38;19.50;;;8.80;;
81298;SDS011;70766;53.170;18.160;2023-11-21T01:40:07;12.20;;;6.20;;
81298;SDS011;70766;53.170;18.160;2023-11-21T01:42:39;17.60;;;7.20;;
81298;SDS011;70766;53.170;18.160;2023-11-21T01:45:08;13.00;;;7.00;;
81298;SDS011;70766;53.170;18.160;2023-11-21T01:47:37;15.00;;;6.40;;
81298;SDS011;70766;53.170;18.160;2023-11-21T01:50:06;17.60;;;8.50;;
81298;SDS011;70766;53.170;18.160;2023-11-21T01:52:35;15.50;;;6.40;;
81298;SDS011;70766;53.170;18.160;2023-11-21T01:55:04;11.90;;;5.70;;
81298;SDS011;70766;53.170;18.160;2023-11-21T01:57:35;16.70;;;8.60;;
81298;SDS011;70766;53.170;18.160;2023-11-21T02:00:05;17.60;;;8.80;;
81298;SDS011;70766;53.170;18.160;2023-11-21T02:02:46;13.30;;;5.60;;
81298;SDS011;70766;53.170;18.160;2023-11-21T02:05:15;17.60;;;8.40;;
81298;SDS011;70766;53.170;18.160;2023-11-21T02:07:49;20.10;;;8.80;;
81298;SDS011;70766;53.170;18.160;2023-11-21T02:10:18;20.70;;;9.40;;
81298;SDS011;70766;53.170;18.160;2023-11-21T02:12:52;19.00;;;9.10;;
81298;SDS011;70766;53.170;18.160;2023-11-21T02:15:21;15.20;;;7.10;;
81298;SDS011;70766;53.170;18.160;2023-11-21T02:17:51;17.70;;;7.30;;
81298;SDS011;70766;53.170;18.160;2023-11-21T02:20:21;15.70;;;7.00;;
81298;SDS011;70766;53.170;18.160;2023-11-21T02:22:51;11.00;;;6.00;;
81298;SDS011;70766;53.170;18.160;2023-11-21T02:25:31;14.60;;;7.20;;
81298;SDS011;70766;53.170;18.160;2023-11-21T02:28:02;12.70;;;6.50;;
81298;SDS011;70766;53.170;18.160;2023-11-21T02:30:31;14.50;;;6.70;;
81298;SDS011;70766;53.170;18.160;2023-11-21T02:33:02;18.60;;;7.30;;
81298;SDS011;70766;53.170;18.160;2023-11-21T02:35:31;13.80;;;6.40;;
81298;SDS011;70766;53.170;18.160;2023-11-21T02:38:00;17.00;;;7.70;;
81298;SDS011;70766;53.170;18.160;2023-11-21T02:40:28;13.10;;;6.20;;
81298;SDS011;70766;53.170;18.160;2023-11-21T02:42:57;20.80;;;9.00;;
81298;SDS011;70766;53.170;18.160;2023-11-21T02:45:27;11.10;;;5.70;;
81298;SDS011;70766;53.170;18.160;2023-11-21T02:47:55;17.70;;;7.90;;
81298;SDS011;70766;53.170;18.160;2023-11-21T02:50:26;18.20;;;7.60;;
81298;SDS011;70766;53.170;18.160;2023-11-21T02:52:55;13.00;;;5.90;;
81298;SDS011;70766;53.170;18.160;2023-11-21T02:55:26;23.00;;;10.70;;
81298;SDS011;70766;53.170;18.160;2023-11-21T02:57:58;9.40;;;4.70;;
81298;SDS011;70766;53.170;18.160;2023-11-21T03:00:27;22.10;;;10.10;;
81298;SDS011;70766;53.170;18.160;2023-11-21T03:02:56;22.10;;;9.80;;
81298;SDS011;70766;53.170;18.160;2023-11-21T03:05:26;24.40;;;9.70;;
81298;SDS011;70766;53.170;18.160;2023-11-21T03:07:57;18.20;;;8.30;;
81298;SDS011;70766;53.170;18.160;2023-11-21T03:10:26;22.50;;;10.50;;
81298;SDS011;70766;53.170;18.160;2023-11-21T03:12:55;17.10;;;7.60;;
81298;SDS011;70766;53.170;18.160;2023-11-21T03:15:25;19.10;;;8.30;;
81298;SDS011;70766;53.170;18.160;2023-11-21T03:17:53;22.60;;;10.00;;
81298;SDS011;70766;53.170;18.160;2023-11-21T03:20:21;25.30;;;10.80;;
81298;SDS011;70766;53.170;18.160;2023-11-21T03:22:49;26.60;;;10.50;;
81298;SDS011;70766;53.170;18.160;2023-11-21T03:25:17;27.10;;;12.40;;
81298;SDS011;70766;53.170;18.160;2023-11-21T03:27:46;19.60;;;9.70;;
81298;SDS011;70766;53.170;18.160;2023-11-21T03:30:14;9.40;;;5.00;;
81298;SDS011;70766;53.170;18.160;2023-11-21T03:32:42;25.80;;;10.50;;
81298;SDS011;70766;53.170;18.160;2023-11-21T03:35:10;24.80;;;11.00;;
81298;SDS011;70766;53.170;18.160;2023-11-21T03:37:39;20.40;;;8.60;;
81298;SDS011;70766;53.170;18.160;2023-11-21T03:40:10;21.30;;;8.90;;
81298;SDS011;70766;53.170;18.160;2023-11-21T03:42:40;15.50;;;5.80;;
81298;SDS011;70766;53.170;18.160;2023-11-21T03:45:10;21.90;;;10.40;;
81298;SDS011;70766;53.170;18.160;2023-11-21T03:47:41;19.20;;;8.00;;
81298;SDS011;70766;53.170;18.160;2023-11-21T03:50:10;21.90;;;8.30;;
81298;SDS011;70766;53.170;18.160;2023-11-21T03:52:38;22.20;;;8.00;;
81298;SDS011;70766;53.170;18.160;2023-11-21T03:55:06;18.80;;;8.00;;
81298;SDS011;70766;53.170;18.160;2023-11-21T03:57:35;18.40;;;7.40;;
81298;SDS011;70766;53.170;18.160;2023-11-21T04:00:04;18.80;;;9.20;;
81298;SDS011;70766;53.170;18.160;2023-11-21T04:02:39;16.90;;;8.00;;
81298;SDS011;70766;53.170;18.160;2023-11-21T04:05:11;20.50;;;8.20;;
81298;SDS011;70766;53.170;18.160;2023-11-21T04:07:39;16.50;;;8.10;;
81298;SDS011;70766;53.170;18.160;2023-11-21T04:10:08;21.10;;;8.00;;
81298;SDS011;70766;53.170;18.160;2023-11-21T04:12:40;13.10;;;5.60;;
81298;SDS011;70766;53.170;18.160;2023-11-21T04:15:10;14.30;;;7.00;;
81298;SDS011;70766;53.170;18.160;2023-11-21T04:17:38;16.80;;;7.60;;
81298;SDS011;70766;53.170;18.160;2023-11-21T04:20:12;12.30;;;4.60;;
81298;SDS011;70766;53.170;18.160;2023-11-21T04:22:43;16.40;;;7.90;;
81298;SDS011;70766;53.170;18.160;2023-11-21T04:25:14;16.90;;;7.30;;
81298;SDS011;70766;53.170;18.160;2023-11-21T04:27:44;15.00;;;8.70;;
81298;SDS011;70766;53.170;18.160;2023-11-21T04:30:14;15.30;;;6.80;;
81298;SDS011;70766;53.170;18.160;2023-11-21T04:32:42;16.50;;;6.50;;
81298;SDS011;70766;53.170;18.160;2023-11-21T04:35:11;22.40;;;9.30;;
81298;SDS011;70766;53.170;18.160;2023-11-21T04:37:40;22.00;;;8.70;;
81298;SDS011;70766;53.170;18.160;2023-11-21T04:40:08;16.10;;;7.40;;
81298;SDS011;70766;53.170;18.160;2023-11-21T04:42:38;11.50;;;5.60;;
81298;SDS011;70766;53.170;18.160;2023-11-21T04:45:06;19.10;;;9.60;;
81298;SDS011;70766;53.170;18.160;2023-11-21T04:47:40;24.40;;;8.70;;
81298;SDS011;70766;53.170;18.160;2023-11-21T04:50:11;19.40;;;7.40;;
81298;SDS011;70766;53.170;18.160;2023-11-21T04:52:40;15.00;;;5.40;;
81298;SDS011;70766;53.170;18.160;2023-11-21T04:55:08;15.20;;;5.90;;
81298;SDS011;70766;53.170;18.160;2023-11-21T04:57:41;16.40;;;6.70;;
81298;SDS011;70766;53.170;18.160;2023-11-21T05:00:10;25.30;;;9.00;;
81298;SDS011;70766;53.170;18.160;2023-11-21T05:02:42;13.20;;;5.50;;
81298;SDS011;70766;53.170;18.160;2023-11-21T05:05:15;15.10;;;6.00;;
81298;SDS011;70766;53.170;18.160;2023-11-21T05:07:44;10.00;;;4.20;;
81298;SDS011;70766;53.170;18.160;2023-11-21T05:10:12;23.90;;;9.50;;
81298;SDS011;70766;53.170;18.160;2023-11-21T05:13:07;16.90;;;7.00;;
81298;SDS011;70766;53.170;18.160;2023-11-21T05:15:38;15.50;;;7.50;;
81298;SDS011;70766;53.170;18.160;2023-11-21T05:18:16;23.30;;;8.80;;
81298;SDS011;70766;53.170;18.160;2023-11-21T05:20:44;14.70;;;5.60;;
81298;SDS011;70766;53.170;18.160;2023-11-21T05:23:17;18.40;;;7.90;;
81298;SDS011;70766;53.170;18.160;2023-11-21T05:25:45;23.10;;;8.60;;
81298;SDS011;70766;53.170;18.160;2023-11-21T05:28:14;15.00;;;5.60;;
81298;SDS011;70766;53.170;18.160;2023-11-21T05:30:42;18.00;;;6.00;;
81298;SDS011;70766;53.170;18.160;2023-11-21T05:33:10;14.30;;;5.90;;
81298;SDS011;70766;53.170;18.160;2023-11-21T05:35:39;22.50;;;8.70;;
81298;SDS011;70766;53.170;18.160;2023-11-21T05:38:07;13.30;;;5.90;;
81298;SDS011;70766;53.170;18.160;2023-11-21T05:40:35;20.60;;;8.60;;
81298;SDS011;70766;53.170;18.160;2023-11-21T05:43:06;15.00;;;5.80;;
81298;SDS011;70766;53.170;18.160;2023-11-21T05:45:34;16.80;;;7.00;;
81298;SDS011;70766;53.170;18.160;2023-11-21T05:48:02;18.50;;;6.30;;
81298;SDS011;70766;53.170;18.160;2023-11-21T05:50:31;10.30;;;4.40;;
81298;SDS011;70766;53.170;18.160;2023-11-21T05:53:00;22.00;;;6.30;;
81298;SDS011;70766;53.170;18.160;2023-11-21T05:55:28;19.30;;;7.10;;
81298;SDS011;70766;53.170;18.160;2023-11-21T05:57:56;17.80;;;9.10;;
81298;SDS011;70766;53.170;18.160;2023-11-21T06:00:25;15.60;;;7.40;;
81298;SDS011;70766;53.170;18.160;2023-11-21T06:02:54;20.30;;;7.20;;
81298;SDS011;70766;53.170;18.160;2023-11-21T06:05:24;15.80;;;6.30;;
81298;SDS011;70766;53.170;18.160;2023-11-21T06:07:54;12.80;;;4.70;;
81298;SDS011;70766;53.170;18.160;2023-11-21T06:10:27;18.40;;;7.30;;
81298;SDS011;70766;53.170;18.160;2023-11-21T06:12:56;19.20;;;7.70;;
81298;SDS011;70766;53.170;18.160;2023-11-21T06:15:31;22.00;;;7.80;;
81298;SDS011;70766;53.170;18.160;2023-11-21T06:17:59;15.00;;;5.60;;
81298;SDS011;70766;53.170;18.160;2023-11-21T06:20:28;13.30;;;5.70;;
81298;SDS011;70766;53.170;18.160;2023-11-21T06:22:56;16.80;;;7.20;;
81298;SDS011;70766;53.170;18.160;2023-11-21T06:25:24;11.90;;;4.60;;
81298;SDS011;70766;53.170;18.160;2023-11-21T06:27:52;13.60;;;5.40;;
81298;SDS011;70766;53.170;18.160;2023-11-21T06:30:22;13.10;;;5.00;;
81298;SDS011;70766;53.170;18.160;2023-11-21T06:32:51;11.30;;;4.80;;
81298;SDS011;70766;53.170;18.160;2023-11-21T06:35:21;14.50;;;5.70;;
81298;SDS011;70766;53.170;18.160;2023-11-21T06:37:49;17.00;;;7.20;;
81298;SDS011;70766;53.170;18.160;2023-11-21T06:40:19;17.60;;;7.80;;
81298;SDS011;70766;53.170;18.160;2023-11-21T06:42:48;12.20;;;4.10;;
81298;SDS011;70766;53.170;18.160;2023-11-21T06:45:18;19.20;;;8.20;;
81298;SDS011;70766;53.170;18.160;2023-11-21T06:47:48;15.30;;;5.40;;
81298;SDS011;70766;53.170;18.160;2023-11-21T06:50:17;19.20;;;6.70;;
81298;SDS011;70766;53.170;18.160;2023-11-21T06:52:45;11.30;;;4.80;;
81298;SDS011;70766;53.170;18.160;2023-11-21T06:55:14;15.10;;;5.40;;
81298;SDS011;70766;53.170;18.160;2023-11-21T06:57:44;12.20;;;5.20;;
81298;SDS011;70766;53.170;18.160;2023-11-21T07:00:13;15.20;;;5.50;;
81298;SDS011;70766;53.170;18.160;2023-11-21T07:02:45;12.30;;;4.80;;
81298;SDS011;70766;53.170;18.160;2023-11-21T07:05:14;17.50;;;7.30;;
81298;SDS011;70766;53.170;18.160;2023-11-21T07:07:43;11.00;;;4.20;;
81298;SDS011;70766;53.170;18.160;2023-11-21T07:10:12;9.20;;;4.20;;
81298;SDS011;70766;53.170;18.160;2023-11-21T07:12:40;11.50;;;4.80;;
81298;SDS011;70766;53.170;18.160;2023-11-21T07:15:09;14.80;;;5.80;;
81298;SDS011;70766;53.170;18.160;2023-11-21T07:17:37;15.00;;;6.30;;
81298;SDS011;70766;53.170;18.160;2023-11-21T07:20:09;16.00;;;6.10;;
81298;SDS011;70766;53.170;18.160;2023-11-21T07:22:39;8.90;;;4.20;;
81298;SDS011;70766;53.170;18.160;2023-11-21T07:25:08;15.30;;;5.90;;
81298;SDS011;70766;53.170;18.160;2023-11-21T07:27:37;16.10;;;6.60;;
81298;SDS011;70766;53.170;18.160;2023-11-21T07:30:06;16.90;;;6.90;;
81298;SDS011;70766;53.170;18.160;2023-11-21T07:32:36;12.60;;;4.30;;
81298;SDS011;70766;53.170;18.160;2023-11-21T07:35:05;11.90;;;4.80;;
81298;SDS011;70766;53.170;18.160;2023-11-21T07:37:36;7.00;;;3.70;;
81298;SDS011;70766;53.170;18.160;2023-11-21T07:40:04;10.10;;;4.30;;
81298;SDS011;70766;53.170;18.160;2023-11-21T07:42:34;8.20;;;3.30;;
81298;SDS011;70766;53.170;18.160;2023-11-21T07:45:03;16.90;;;5.90;;
81298;SDS011;70766;53.170;18.160;2023-11-21T07:47:32;7.40;;;3.80;;
81298;SDS011;70766;53.170;18.160;2023-11-21T07:50:06;14.10;;;5.90;;
81298;SDS011;70766;53.170;18.160;2023-11-21T07:52:37;9.10;;;4.00;;
81298;SDS011;70766;53.170;18.160;2023-11-21T07:55:05;7.80;;;3.60;;
81298;SDS011;70766;53.170;18.160;2023-11-21T07:57:35;11.40;;;4.60;;
81298;SDS011;70766;53.170;18.160;2023-11-21T08:00:04;8.80;;;3.60;;
81298;SDS011;70766;53.170;18.160;2023-11-21T08:02:41;12.80;;;4.60;;
81298;SDS011;70766;53.170;18.160;2023-11-21T08:05:14;7.60;;;3.40;;
81298;SDS011;70766;53.170;18.160;2023-11-21T08:07:55;8.50;;;3.30;;
81298;SDS011;70766;53.170;18.160;2023-11-21T08:10:24;17.60;;;7.00;;
81298;SDS011;70766;53.170;18.160;2023-11-21T08:12:53;11.00;;;4.20;;
81298;SDS011;70766;53.170;18.160;2023-11-21T08:15:21;9.80;;;4.10;;
81298;SDS011;70766;53.170;18.160;2023-11-21T08:17:49;10.90;;;4.00;;
81298;SDS011;70766;53.170;18.160;2023-11-21T08:20:19;11.00;;;4.40;;
81298;SDS011;70766;53.170;18.160;2023-11-21T08:22:48;9.90;;;4.50;;
81298;SDS011;70766;53.170;18.160;2023-11-21T08:25:36;11.50;;;4.80;;
81298;SDS011;70766;53.170;18.160;2023-11-21T08:28:05;9.20;;;4.00;;
81298;SDS011;70766;53.170;18.160;2023-11-21T08:30:33;13.10;;;5.60;;
81298;SDS011;70766;53.170;18.160;2023-11-21T08:33:02;10.40;;;3.90;;
81298;SDS011;70766;53.170;18.160;2023-11-21T08:35:34;5.30;;;2.40;;
81298;SDS011;70766;53.170;18.160;2023-11-21T08:38:04;9.00;;;4.00;;
81298;SDS011;70766;53.170;18.160;2023-11-21T08:40:37;9.80;;;3.20;;
81298;SDS011;70766;53.170;18.160;2023-11-21T08:43:06;10.00;;;3.90;;
81298;SDS011;70766;53.170;18.160;2023-11-21T08:45:34;10.00;;;5.10;;
81298;SDS011;70766;53.170;18.160;2023-11-21T08:48:06;13.20;;;5.60;;
81298;SDS011;70766;53.170;18.160;2023-11-21T08:50:34;10.40;;;4.10;;
81298;SDS011;70766;53.170;18.160;2023-11-21T08:53:03;9.30;;;4.40;;
81298;SDS011;70766;53.170;18.160;2023-11-21T08:55:32;15.70;;;7.00;;
81298;SDS011;70766;53.170;18.160;2023-11-21T08:58:05;8.40;;;4.00;;
81298;SDS011;70766;53.170;18.160;2023-11-21T09:00:33;9.50;;;4.00;;
81298;SDS011;70766;53.170;18.160;2023-11-21T09:03:02;14.20;;;5.40;;
81298;SDS011;70766;53.170;18.160;2023-11-21T09:05:31;13.50;;;5.10;;
81298;SDS011;70766;53.170;18.160;2023-11-21T09:08:00;13.40;;;5.90;;
81298;SDS011;70766;53.170;18.160;2023-11-21T09:10:28;9.90;;;3.90;;
81298;SDS011;70766;53.170;18.160;2023-11-21T09:12:56;13.30;;;6.00;;
81298;SDS011;70766;53.170;18.160;2023-11-21T09:15:24;12.30;;;4.50;;
81298;SDS011;70766;53.170;18.160;2023-11-21T09:17:53;11.50;;;5.50;;
81298;SDS011;70766;53.170;18.160;2023-11-21T09:20:21;14.60;;;5.10;;
81298;SDS011;70766;53.170;18.160;2023-11-21T09:22:50;11.90;;;4.90;;
81298;SDS011;70766;53.170;18.160;2023-11-21T09:25:19;7.60;;;3.30;;
81298;SDS011;70766;53.170;18.160;2023-11-21T09:27:48;13.10;;;6.10;;
81298;SDS011;70766;53.170;18.160;2023-11-21T09:30:16;8.70;;;3.90;;
81298;SDS011;70766;53.170;18.160;2023-11-21T09:32:44;13.90;;;5.40;;
81298;SDS011;70766;53.170;18.160;2023-11-21T09:35:13;11.60;;;4.50;;
81298;SDS011;70766;53.170;18.160;2023-11-21T09:37:43;10.40;;;4.00;;
81298;SDS011;70766;53.170;18.160;2023-11-21T09:40:17;13.10;;;5.30;;
81298;SDS011;70766;53.170;18.160;2023-11-21T09:42:53;14.20;;;6.00;;
81298;SDS011;70766;53.170;18.160;2023-11-21T09:47:55;14.20;;;6.20;;
81298;SDS011;70766;53.170;18.160;2023-11-21T09:50:24;11.50;;;4.60;;
81298;SDS011;70766;53.170;18.160;2023-11-21T09:55:24;15.20;;;5.60;;
81298;SDS011;70766;53.170;18.160;2023-11-21T09:57:56;12.90;;;5.80;;
81298;SDS011;70766;53.170;18.160;2023-11-21T10:00:25;12.70;;;6.10;;
81298;SDS011;70766;53.170;18.160;2023-11-21T10:02:55;8.70;;;3.40;;
81298;SDS011;70766;53.170;18.160;2023-11-21T10:05:26;11.80;;;4.50;;
81298;SDS011;70766;53.170;18.160;2023-11-21T10:07:56;15.50;;;5.30;;
81298;SDS011;70766;53.170;18.160;2023-11-21T10:10:25;8.20;;;4.10;;
81298;SDS011;70766;53.170;18.160;2023-11-21T10:12:56;9.50;;;4.60;;
81298;SDS011;70766;53.170;18.160;2023-11-21T10:15:30;14.50;;;6.40;;
81298;SDS011;70766;53.170;18.160;2023-11-21T10:17:59;10.30;;;4.00;;
81298;SDS011;70766;53.170;18.160;2023-11-21T10:20:27;13.80;;;6.20;;
81298;SDS011;70766;53.170;18.160;2023-11-21T10:22:55;13.80;;;5.80;;
81298;SDS011;70766;53.170;18.160;2023-11-21T10:25:26;14.10;;;6.10;;
81298;SDS011;70766;53.170;18.160;2023-11-21T10:27:58;13.40;;;5.70;;
81298;SDS011;70766;53.170;18.160;2023-11-21T10:30:36;8.70;;;4.10;;
81298;SDS011;70766;53.170;18.160;2023-11-21T10:33:07;11.10;;;5.20;;
81298;SDS011;70766;53.170;18.160;2023-11-21T10:35:45;8.50;;;3.00;;
81298;SDS011;70766;53.170;18.160;2023-11-21T10:38:22;9.40;;;3.30;;
81298;SDS011;70766;53.170;18.160;2023-11-21T10:40:52;12.90;;;5.50;;
81298;SDS011;70766;53.170;18.160;2023-11-21T10:43:25;12.10;;;5.20;;
81298;SDS011;70766;53.170;18.160;2023-11-21T10:45:57;13.10;;;5.10;;
81298;SDS011;70766;53.170;18.160;2023-11-21T10:48:27;8.80;;;4.00;;
81298;SDS011;70766;53.170;18.160;2023-11-21T10:50:55;8.90;;;3.80;;
81298;SDS011;70766;53.170;18.160;2023-11-21T10:53:28;9.00;;;4.10;;
81298;SDS011;70766;53.170;18.160;2023-11-21T10:56:05;7.90;;;3.20;;
81298;SDS011;70766;53.170;18.160;2023-11-21T10:58:36;12.60;;;5.40;;
81298;SDS011;70766;53.170;18.160;2023-11-21T11:01:06;9.80;;;3.80;;
81298;SDS011;70766;53.170;18.160;2023-11-21T11:03:35;8.50;;;3.50;;
81298;SDS011;70766;53.170;18.160;2023-11-21T11:06:04;9.90;;;4.60;;
81298;SDS011;70766;53.170;18.160;2023-11-21T11:08:35;8.00;;;3.60;;
81298;SDS011;70766;53.170;18.160;2023-11-21T11:11:05;7.10;;;3.20;;
81298;SDS011;70766;53.170;18.160;2023-11-21T11:13:34;12.60;;;5.30;;
81298;SDS011;70766;53.170;18.160;2023-11-21T11:16:02;13.90;;;5.90;;
81298;SDS011;70766;53.170;18.160;2023-11-21T11:18:35;12.60;;;5.30;;
81298;SDS011;70766;53.170;18.160;2023-11-21T11:21:16;11.30;;;4.20;;
81298;SDS011;70766;53.170;18.160;2023-11-21T11:29:23;9.20;;;3.80;;
81298;SDS011;70766;53.170;18.160;2023-11-21T11:35:08;7.90;;;3.20;;
81298;SDS011;70766;53.170;18.160;2023-11-21T11:37:44;8.70;;;4.30;;
81298;SDS011;70766;53.170;18.160;2023-11-21T11:40:12;10.50;;;4.30;;
81298;SDS011;70766;53.170;18.160;2023-11-21T11:42:58;9.70;;;4.10;;
81298;SDS011;70766;53.170;18.160;2023-11-21T11:45:33;14.30;;;5.40;;
81298;SDS011;70766;53.170;18.160;2023-11-21T11:48:04;10.00;;;3.90;;
81298;SDS011;70766;53.170;18.160;2023-11-21T11:50:33;10.90;;;4.60;;
81298;SDS011;70766;53.170;18.160;2023-11-21T11:53:14;11.10;;;4.20;;
81298;SDS011;70766;53.170;18.160;2023-11-21T11:55:43;9.90;;;4.80;;
81298;SDS011;70766;53.170;18.160;2023-11-21T11:58:11;11.20;;;4.70;;
81298;SDS011;70766;53.170;18.160;2023-11-21T12:00:40;7.70;;;2.90;;
81298;SDS011;70766;53.170;18.160;2023-11-21T12:03:11;10.30;;;4.20;;
81298;SDS011;70766;53.170;18.160;2023-11-21T12:05:41;5.50;;;2.70;;
81298;SDS011;70766;53.170;18.160;2023-11-21T12:08:13;8.50;;;3.80;;
81298;SDS011;70766;53.170;18.160;2023-11-21T12:10:44;11.50;;;5.30;;
81298;SDS011;70766;53.170;18.160;2023-11-21T12:13:12;10.10;;;5.20;;
81298;SDS011;70766;53.170;18.160;2023-11-21T12:15:41;12.70;;;4.90;;
81298;SDS011;70766;53.170;18.160;2023-11-21T12:18:10;11.30;;;5.70;;
81298;SDS011;70766;53.170;18.160;2023-11-21T12:20:38;11.00;;;5.10;;
81298;SDS011;70766;53.170;18.160;2023-11-21T12:23:08;16.30;;;5.80;;
81298;SDS011;70766;53.170;18.160;2023-11-21T12:25:38;9.60;;;3.90;;
81298;SDS011;70766;53.170;18.160;2023-11-21T12:28:10;9.90;;;4.00;;
81298;SDS011;70766;53.170;18.160;2023-11-21T12:30:40;14.70;;;6.50;;
81298;SDS011;70766;53.170;18.160;2023-11-21T12:33:08;7.80;;;3.90;;
81298;SDS011;70766;53.170;18.160;2023-11-21T12:35:38;13.50;;;6.50;;
81298;SDS011;70766;53.170;18.160;2023-11-21T12:38:06;8.50;;;3.80;;
81298;SDS011;70766;53.170;18.160;2023-11-21T12:40:37;12.30;;;4.50;;
81298;SDS011;70766;53.170;18.160;2023-11-21T12:43:06;11.80;;;5.20;;
81298;SDS011;70766;53.170;18.160;2023-11-21T12:45:38;7.80;;;3.30;;
81298;SDS011;70766;53.170;18.160;2023-11-21T12:48:07;11.10;;;5.50;;
81298;SDS011;70766;53.170;18.160;2023-11-21T12:50:41;6.10;;;2.70;;
81298;SDS011;70766;53.170;18.160;2023-11-21T12:53:10;10.30;;;4.80;;
81298;SDS011;70766;53.170;18.160;2023-11-21T12:55:40;6.90;;;2.90;;
81298;SDS011;70766;53.170;18.160;2023-11-21T12:58:11;7.70;;;3.50;;
81298;SDS011;70766;53.170;18.160;2023-11-21T13:00:57;8.90;;;4.50;;
81298;SDS011;70766;53.170;18.160;2023-11-21T13:03:27;11.80;;;5.00;;
81298;SDS011;70766;53.170;18.160;2023-11-21T13:05:57;9.40;;;3.40;;
81298;SDS011;70766;53.170;18.160;2023-11-21T13:08:27;8.90;;;3.20;;
81298;SDS011;70766;53.170;18.160;2023-11-21T13:10:57;4.30;;;2.00;;
81298;SDS011;70766;53.170;18.160;2023-11-21T13:13:28;8.90;;;3.10;;
81298;SDS011;70766;53.170;18.160;2023-11-21T13:16:00;6.60;;;2.90;;
81298;SDS011;70766;53.170;18.160;2023-11-21T13:18:34;11.20;;;4.70;;
81298;SDS011;70766;53.170;18.160;2023-11-21T13:21:05;10.00;;;3.90;;
81298;SDS011;70766;53.170;18.160;2023-11-21T13:23:43;7.60;;;3.80;;
81298;SDS011;70766;53.170;18.160;2023-11-21T13:26:14;6.30;;;3.10;;
81298;SDS011;70766;53.170;18.160;2023-11-21T13:28:43;6.70;;;2.70;;
81298;SDS011;70766;53.170;18.160;2023-11-21T13:31:15;10.00;;;3.90;;
81298;SDS011;70766;53.170;18.160;2023-11-21T13:34:04;6.30;;;3.00;;
81298;SDS011;70766;53.170;18.160;2023-11-21T13:36:33;8.60;;;3.30;;
81298;SDS011;70766;53.170;18.160;2023-11-21T13:39:03;8.30;;;4.00;;
81298;SDS011;70766;53.170;18.160;2023-11-21T13:41:43;7.20;;;2.60;;
81298;SDS011;70766;53.170;18.160;2023-11-21T13:44:16;6.80;;;2.30;;
81298;SDS011;70766;53.170;18.160;2023-11-21T13:46:54;6.40;;;2.80;;
81298;SDS011;70766;53.170;18.160;2023-11-21T13:49:25;7.70;;;3.10;;
81298;SDS011;70766;53.170;18.160;2023-11-21T13:51:54;10.80;;;4.70;;
81298;SDS011;70766;53.170;18.160;2023-11-21T13:54:23;8.00;;;2.80;;
81298;SDS011;70766;53.170;18.160;2023-11-21T13:56:53;10.00;;;3.90;;
81298;SDS011;70766;53.170;18.160;2023-11-21T13:59:23;10.90;;;4.60;;
81298;SDS011;70766;53.170;18.160;2023-11-21T14:01:54;11.50;;;5.20;;
81298;SDS011;70766;53.170;18.160;2023-11-21T14:04:28;11.80;;;4.60;;
81298;SDS011;70766;53.170;18.160;2023-11-21T14:07:15;11.80;;;5.50;;
81298;SDS011;70766;53.170;18.160;2023-11-21T14:10:04;17.00;;;5.50;;
81298;SDS011;70766;53.170;18.160;2023-11-21T14:12:35;11.30;;;5.60;;
81298;SDS011;70766;53.170;18.160;2023-11-21T14:15:07;12.70;;;5.50;;
81298;SDS011;70766;53.170;18.160;2023-11-21T14:20:54;7.50;;;2.80;;
81298;SDS011;70766;53.170;18.160;2023-11-21T14:23:22;7.70;;;3.50;;
81298;SDS011;70766;53.170;18.160;2023-11-21T14:25:51;6.30;;;2.60;;
81298;SDS011;70766;53.170;18.160;2023-11-21T14:28:20;7.40;;;2.70;;
81298;SDS011;70766;53.170;18.160;2023-11-21T14:30:48;10.40;;;4.20;;
81298;SDS011;70766;53.170;18.160;2023-11-21T14:33:17;7.60;;;3.20;;
81298;SDS011;70766;53.170;18.160;2023-11-21T14:35:45;8.30;;;3.40;;
81298;SDS011;70766;53.170;18.160;2023-11-21T14:38:14;5.40;;;2.90;;
81298;SDS011;70766;53.170;18.160;2023-11-21T14:40:42;9.50;;;3.80;;
81298;SDS011;70766;53.170;18.160;2023-11-21T14:43:11;6.40;;;2.80;;
81298;SDS011;70766;53.170;18.160;2023-11-21T14:45:39;12.00;;;4.50;;
81298;SDS011;70766;53.170;18.160;2023-11-21T14:48:07;5.90;;;2.60;;
81298;SDS011;70766;53.170;18.160;2023-11-21T14:50:44;9.50;;;3.80;;
81298;SDS011;70766;53.170;18.160;2023-11-21T14:53:32;9.30;;;3.00;;
81298;SDS011;70766;53.170;18.160;2023-11-21T14:56:22;6.40;;;3.40;;
81298;SDS011;70766;53.170;18.160;2023-11-21T14:59:02;7.30;;;2.90;;